Time;durP1;ratioP1;P1;durP2;ratioP2;P2;SDS_P1;SDS_P2;PMS_P1;PMS_P2;Temp;Humidity;BMP_temperature;BMP_pressure;BME280_temperature;BME280_humidity;BME280_pressure;Samples;Min_cycle;Max_cycle;Signal;HPM_P1;HPM_P2
2021/10/26 00:00:18;;;;;;;124.07;55.08;;;;;;;;;;6246140;23;20054;-60
2021/10/26 00:02:44;;;;;;;97.43;45.70;;;;;;;;;;6245867;23;20079;-60
2021/10/26 00:05:10;;;;;;;83.15;39.53;;;;;;;;;;6246024;23;20454;-60
2021/10/26 00:07:35;;;;;;;86.65;40.20;;;;;;;;;;6245820;23;19992;-60
2021/10/26 00:10:01;;;;;;;89.80;43.15;;;;;;;;;;6243768;23;20091;-60
2021/10/26 00:12:26;;;;;;;67.15;33.78;;;;;;;;;;6245816;22;20007;-60
2021/10/26 00:14:54;;;;;;;63.67;30.50;;;;;;;;;;6245745;22;20010;-60
2021/10/26 00:17:20;;;;;;;76.88;34.33;;;;;;;;;;6245927;22;20075;-61
2021/10/26 00:19:45;;;;;;;78.05;34.22;;;;;;;;;;6245817;22;20028;-61
2021/10/26 00:22:11;;;;;;;145.57;57.30;;;;;;;;;;6244133;23;20032;-61
2021/10/26 00:24:36;;;;;;;143.00;62.97;;;;;;;;;;6245776;22;20008;-61
2021/10/26 00:27:02;;;;;;;68.78;39.10;;;;;;;;;;6245777;23;20000;-61
2021/10/26 00:29:27;;;;;;;64.18;31.45;;;;;;;;;;6245889;23;20014;-60
2021/10/26 00:31:54;;;;;;;122.05;52.58;;;;;;;;;;6193570;23;20007;-61
2021/10/26 00:34:20;;;;;;;111.88;53.67;;;;;;;;;;6245546;22;20425;-61
2021/10/26 00:36:46;;;;;;;76.20;36.90;;;;;;;;;;6245576;23;19992;-61
2021/10/26 00:39:11;;;;;;;67.22;33.50;;;;;;;;;;6245474;23;20004;-60
2021/10/26 00:41:37;;;;;;;68.13;33.63;;;;;;;;;;6244087;23;20055;-61
2021/10/26 00:44:02;;;;;;;72.63;35.92;;;;;;;;;;6245657;23;20030;-61
2021/10/26 00:46:32;;;;;;;69.50;34.20;;;;;;;;;;6244082;23;19996;-61
2021/10/26 00:49:00;;;;;;;88.97;44.35;;;;;;;;;;6243762;23;20016;-60
2021/10/26 00:51:26;;;;;;;142.13;67.03;;;;;;;;;;6244119;23;20008;-60
2021/10/26 00:53:52;;;;;;;125.32;56.78;;;;;;;;;;6245597;22;20425;-60
2021/10/26 00:56:19;;;;;;;74.38;37.30;;;;;;;;;;6244146;23;20416;-60
2021/10/26 00:58:46;;;;;;;64.47;31.13;;;;;;;;;;6244145;23;20337;-60
2021/10/26 01:01:11;;;;;;;62.55;30.60;;;;;;;;;;6244852;22;19996;-61
2021/10/26 01:03:37;;;;;;;59.40;28.23;;;;;;;;;;6245441;23;20008;-61
2021/10/26 01:06:02;;;;;;;57.35;27.25;;;;;;;;;;6218795;23;20027;-61
2021/10/26 01:08:29;;;;;;;52.47;26.20;;;;;;;;;;6244040;23;20066;-61
2021/10/26 01:10:55;;;;;;;164.38;69.90;;;;;;;;;;6243827;23;20042;-61
2021/10/26 01:13:22;;;;;;;179.77;80.85;;;;;;;;;;6243878;23;20005;-60
2021/10/26 01:15:50;;;;;;;90.13;41.22;;;;;;;;;;6245431;23;20007;-60
2021/10/26 01:18:25;;;;;;;68.93;32.17;;;;;;;;;;6246143;23;20023;-60
2021/10/26 01:20:52;;;;;;;59.55;30.85;;;;;;;;;;6245866;23;20440;-61
2021/10/26 01:23:18;;;;;;;80.38;39.25;;;;;;;;;;6245877;23;20004;-60
2021/10/26 01:25:43;;;;;;;83.13;40.72;;;;;;;;;;6245729;23;20087;-60
2021/10/26 01:28:09;;;;;;;74.55;37.15;;;;;;;;;;6247361;22;20005;-60
2021/10/26 01:30:35;;;;;;;60.42;31.85;;;;;;;;;;6245677;23;20015;-60
2021/10/26 01:33:33;;;;;;;61.88;32.13;;;;;;;;;;6234685;23;20001;-59
2021/10/26 01:36:22;;;;;;;60.45;31.90;;;;;;;;;;6245797;23;20424;-59
2021/10/26 01:38:49;;;;;;;67.38;34.05;;;;;;;;;;6245834;23;20031;-59
2021/10/26 01:41:15;;;;;;;57.80;32.92;;;;;;;;;;6245726;23;20310;-59
2021/10/26 01:43:41;;;;;;;57.50;29.48;;;;;;;;;;6245646;23;20015;-60
2021/10/26 01:46:07;;;;;;;50.78;26.25;;;;;;;;;;6245508;23;20058;-60
2021/10/26 01:48:36;;;;;;;50.33;25.42;;;;;;;;;;6245457;23;20516;-60
2021/10/26 01:51:03;;;;;;;48.13;25.75;;;;;;;;;;6246841;23;20039;-60
2021/10/26 01:53:30;;;;;;;50.67;26.85;;;;;;;;;;6219880;23;20004;-60
2021/10/26 01:55:55;;;;;;;52.08;26.83;;;;;;;;;;6220420;23;20329;-59
2021/10/26 01:58:23;;;;;;;51.30;26.05;;;;;;;;;;6220282;23;20000;-59
2021/10/26 02:01:07;;;;;;;54.08;31.42;;;;;;;;;;6247189;23;20134;-59
2021/10/26 02:03:33;;;;;;;57.88;28.77;;;;;;;;;;6220269;23;20067;-59
2021/10/26 02:05:59;;;;;;;50.47;26.33;;;;;;;;;;6194936;23;20392;-59
2021/10/26 02:08:25;;;;;;;51.72;25.98;;;;;;;;;;6219872;23;20440;-60
2021/10/26 02:10:50;;;;;;;52.13;26.38;;;;;;;;;;6246817;23;20036;-60
2021/10/26 02:13:15;;;;;;;50.83;26.10;;;;;;;;;;6220068;23;20341;-60
2021/10/26 02:15:41;;;;;;;47.35;25.20;;;;;;;;;;6219930;23;20328;-61
2021/10/26 02:18:07;;;;;;;52.85;25.45;;;;;;;;;;6219968;23;20008;-60
2021/10/26 02:20:34;;;;;;;49.33;24.83;;;;;;;;;;6219703;23;20007;-60
2021/10/26 02:23:02;;;;;;;47.58;25.15;;;;;;;;;;6219906;23;20004;-60
2021/10/26 02:25:27;;;;;;;48.85;25.20;;;;;;;;;;6245146;23;20368;-61
2021/10/26 02:27:53;;;;;;;49.60;25.88;;;;;;;;;;6245267;23;20043;-60
2021/10/26 02:30:19;;;;;;;50.42;26.20;;;;;;;;;;6245094;23;20366;-60
2021/10/26 02:32:44;;;;;;;48.67;23.52;;;;;;;;;;6244990;23;20016;-60
2021/10/26 02:35:10;;;;;;;41.08;21.92;;;;;;;;;;6245196;23;20138;-60
2021/10/26 02:37:36;;;;;;;41.55;22.75;;;;;;;;;;6245232;23;20054;-60
2021/10/26 02:40:04;;;;;;;46.92;24.63;;;;;;;;;;6245276;23;20413;-60
2021/10/26 02:42:29;;;;;;;49.88;27.08;;;;;;;;;;6245202;23;20040;-59
2021/10/26 02:44:55;;;;;;;49.28;27.23;;;;;;;;;;6245035;23;20004;-59
2021/10/26 02:47:21;;;;;;;55.88;27.83;;;;;;;;;;6246057;23;20387;-59
2021/10/26 02:49:48;;;;;;;54.13;27.58;;;;;;;;;;6244615;23;20008;-60
2021/10/26 02:52:13;;;;;;;44.95;23.42;;;;;;;;;;6245193;23;20022;-59
2021/10/26 02:54:39;;;;;;;43.30;22.30;;;;;;;;;;6244997;23;20007;-59
2021/10/26 02:57:05;;;;;;;49.92;25.35;;;;;;;;;;6244987;23;20364;-59
2021/10/26 02:59:30;;;;;;;48.55;26.60;;;;;;;;;;6246378;22;20001;-59
2021/10/26 03:01:56;;;;;;;45.88;24.10;;;;;;;;;;6244747;23;20008;-59
2021/10/26 03:04:23;;;;;;;44.83;23.23;;;;;;;;;;6244854;23;19996;-59
2021/10/26 03:06:50;;;;;;;43.08;22.40;;;;;;;;;;6244705;23;20087;-59
2021/10/26 03:09:15;;;;;;;40.75;20.88;;;;;;;;;;6244833;23;20387;-59
2021/10/26 03:11:41;;;;;;;39.25;20.63;;;;;;;;;;6246376;23;20008;-59
2021/10/26 03:14:06;;;;;;;40.55;21.15;;;;;;;;;;6244824;23;20007;-59
2021/10/26 03:16:32;;;;;;;41.85;22.83;;;;;;;;;;6244683;23;20004;-59
2021/10/26 03:18:58;;;;;;;37.17;20.23;;;;;;;;;;6244676;23;20053;-59
2021/10/26 03:21:24;;;;;;;37.78;21.65;;;;;;;;;;6244582;23;20012;-59
2021/10/26 03:23:50;;;;;;;41.40;21.48;;;;;;;;;;6244541;23;20000;-60
2021/10/26 03:26:15;;;;;;;42.90;21.55;;;;;;;;;;6244655;23;20035;-60
2021/10/26 03:28:41;;;;;;;39.25;20.10;;;;;;;;;;6244672;23;20003;-60
2021/10/26 03:31:07;;;;;;;39.28;21.02;;;;;;;;;;6244354;23;20077;-60
2021/10/26 03:34:02;;;;;;;37.22;21.60;;;;;;;;;;6245117;23;19997;-60
2021/10/26 03:36:28;;;;;;;41.95;21.77;;;;;;;;;;6246488;22;20005;-60
2021/10/26 03:38:53;;;;;;;42.50;22.30;;;;;;;;;;6246225;22;20075;-60
2021/10/26 03:41:19;;;;;;;46.30;24.27;;;;;;;;;;6246305;22;20012;-60
2021/10/26 03:43:44;;;;;;;41.78;21.50;;;;;;;;;;6244275;23;20039;-59
2021/10/26 03:46:12;;;;;;;42.67;23.58;;;;;;;;;;6219414;23;20008;-59
2021/10/26 03:48:38;;;;;;;43.63;23.70;;;;;;;;;;6244296;23;20459;-59
2021/10/26 03:51:03;;;;;;;42.88;23.10;;;;;;;;;;6246312;23;20008;-59
2021/10/26 03:53:29;;;;;;;38.13;19.70;;;;;;;;;;6244707;23;20038;-60
2021/10/26 03:55:55;;;;;;;36.25;18.90;;;;;;;;;;6244672;23;20030;-59
2021/10/26 03:58:20;;;;;;;35.33;16.92;;;;;;;;;;6244608;23;20306;-59
2021/10/26 04:00:50;;;;;;;29.95;16.40;;;;;;;;;;6244455;23;20035;-59
2021/10/26 04:03:24;;;;;;;34.75;18.05;;;;;;;;;;6244680;23;20008;-60
2021/10/26 04:10:54;;;;;;;32.15;18.90;;;;;;;;;;6244671;23;20016;-58
2021/10/26 04:13:20;;;;;;;37.20;20.00;;;;;;;;;;6244533;23;19996;-59
2021/10/26 04:15:47;;;;;;;36.53;20.52;;;;;;;;;;6218772;23;20083;-59
2021/10/26 04:18:13;;;;;;;39.25;21.05;;;;;;;;;;6218873;23;20024;-59
2021/10/26 04:20:38;;;;;;;40.53;20.60;;;;;;;;;;6245365;23;20015;-59
2021/10/26 04:23:04;;;;;;;35.53;20.35;;;;;;;;;;6218739;23;20003;-59
2021/10/26 04:25:32;;;;;;;39.80;20.77;;;;;;;;;;6244075;23;20008;-59
2021/10/26 04:27:58;;;;;;;39.42;20.83;;;;;;;;;;6244180;23;20364;-59
2021/10/26 04:30:25;;;;;;;39.15;18.90;;;;;;;;;;6218779;23;20079;-59
2021/10/26 04:32:51;;;;;;;38.85;20.67;;;;;;;;;;6244139;23;20436;-59
2021/10/26 04:35:16;;;;;;;38.10;20.42;;;;;;;;;;6244201;23;20004;-59
2021/10/26 04:37:42;;;;;;;36.67;20.83;;;;;;;;;;6245725;22;20029;-59
2021/10/26 04:40:09;;;;;;;36.75;20.98;;;;;;;;;;6243680;23;20083;-60
2021/10/26 04:42:37;;;;;;;37.90;20.20;;;;;;;;;;6244060;23;20016;-59
2021/10/26 04:45:07;;;;;;;35.53;21.33;;;;;;;;;;6243845;23;20012;-59
2021/10/26 04:47:32;;;;;;;33.22;19.88;;;;;;;;;;6243418;23;20420;-60
2021/10/26 04:49:58;;;;;;;36.63;20.92;;;;;;;;;;6244931;23;20008;-59
2021/10/26 04:52:24;;;;;;;39.03;20.95;;;;;;;;;;6247697;22;20443;-59
2021/10/26 04:54:49;;;;;;;37.88;20.65;;;;;;;;;;6246108;23;20004;-59
2021/10/26 04:57:16;;;;;;;42.45;22.63;;;;;;;;;;6220674;23;19992;-59
2021/10/26 05:00:06;;;;;;;35.03;20.47;;;;;;;;;;6221041;23;20004;-60
2021/10/26 05:02:32;;;;;;;46.47;24.23;;;;;;;;;;6220624;23;20010;-60
2021/10/26 05:04:57;;;;;;;56.08;29.75;;;;;;;;;;6246168;23;20096;-59
2021/10/26 05:07:24;;;;;;;49.10;27.20;;;;;;;;;;6245933;23;20030;-59
2021/10/26 05:09:51;;;;;;;44.75;25.15;;;;;;;;;;6245908;23;20000;-59
2021/10/26 05:12:17;;;;;;;44.75;26.38;;;;;;;;;;6245950;23;20012;-59
2021/10/26 05:14:42;;;;;;;51.67;28.00;;;;;;;;;;6245954;23;19996;-59
2021/10/26 05:17:28;;;;;;;59.65;30.58;;;;;;;;;;6247676;23;20400;-59
2021/10/26 05:20:14;;;;;;;72.70;37.22;;;;;;;;;;6247594;23;20019;-59
2021/10/26 05:22:58;;;;;;;92.15;47.28;;;;;;;;;;6247617;23;20348;-59
2021/10/26 05:25:50;;;;;;;84.83;43.70;;;;;;;;;;6245902;23;20087;-59
2021/10/26 05:28:18;;;;;;;90.93;50.30;;;;;;;;;;6245789;23;20012;-59
2021/10/26 05:30:43;;;;;;;90.47;47.95;;;;;;;;;;6245580;23;20083;-61
2021/10/26 05:33:09;;;;;;;83.10;44.85;;;;;;;;;;6247259;23;20011;-59
2021/10/26 05:35:34;;;;;;;88.57;48.67;;;;;;;;;;6245673;23;20008;-59
2021/10/26 05:38:00;;;;;;;86.22;48.15;;;;;;;;;;6247478;23;20424;-59
2021/10/26 05:40:25;;;;;;;82.10;45.55;;;;;;;;;;6245776;23;19997;-59
2021/10/26 05:42:50;;;;;;;78.22;43.42;;;;;;;;;;6220422;23;20459;-59
2021/10/26 05:45:18;;;;;;;84.40;45.63;;;;;;;;;;6245520;23;19996;-61
2021/10/26 05:47:45;;;;;;;85.55;47.33;;;;;;;;;;6246504;22;20016;-60
2021/10/26 05:50:11;;;;;;;88.43;48.40;;;;;;;;;;6245577;23;20070;-60
2021/10/26 05:52:37;;;;;;;93.15;50.67;;;;;;;;;;6245604;23;20012;-59
2021/10/26 05:55:02;;;;;;;92.18;50.65;;;;;;;;;;6247126;23;20324;-60
2021/10/26 05:57:28;;;;;;;95.43;50.75;;;;;;;;;;6247032;23;20004;-60
2021/10/26 05:59:54;;;;;;;78.50;43.75;;;;;;;;;;6245413;23;20007;-60
2021/10/26 06:02:20;;;;;;;71.35;39.88;;;;;;;;;;6246702;22;20429;-59
2021/10/26 06:04:45;;;;;;;76.97;43.22;;;;;;;;;;6247077;23;20050;-59
2021/10/26 06:07:11;;;;;;;78.10;44.78;;;;;;;;;;6245397;23;20008;-59
2021/10/26 06:09:37;;;;;;;80.70;48.25;;;;;;;;;;6245352;23;20376;-60
2021/10/26 06:12:04;;;;;;;81.63;45.05;;;;;;;;;;6245281;23;20004;-59
2021/10/26 06:14:32;;;;;;;88.28;50.97;;;;;;;;;;6245573;23;19992;-59
2021/10/26 06:17:01;;;;;;;82.47;44.50;;;;;;;;;;6245426;23;20000;-59
2021/10/26 06:19:30;;;;;;;78.38;42.80;;;;;;;;;;6245538;23;20444;-59
2021/10/26 06:21:55;;;;;;;86.70;49.40;;;;;;;;;;6245319;23;20004;-59
2021/10/26 06:24:21;;;;;;;94.55;52.03;;;;;;;;;;6245131;23;20487;-59
2021/10/26 06:26:47;;;;;;;93.80;53.95;;;;;;;;;;6245200;23;20424;-59
2021/10/26 06:29:12;;;;;;;95.07;53.90;;;;;;;;;;6244668;23;20004;-59
2021/10/26 06:31:56;;;;;;;100.15;54.20;;;;;;;;;;6245125;23;20015;-59
2021/10/26 06:34:22;;;;;;;98.03;52.28;;;;;;;;;;6245011;23;20491;-59
2021/10/26 06:36:48;;;;;;;100.78;52.13;;;;;;;;;;6245095;23;20062;-59
2021/10/26 06:39:14;;;;;;;91.35;48.65;;;;;;;;;;6245024;23;20004;-59
2021/10/26 06:41:40;;;;;;;87.68;47.30;;;;;;;;;;6245110;23;20000;-59
2021/10/26 06:44:28;;;;;;;93.18;48.50;;;;;;;;;;6246800;23;20016;-59
2021/10/26 06:47:14;;;;;;;102.55;52.05;;;;;;;;;;6246388;23;20447;-59
2021/10/26 06:49:58;;;;;;;78.30;45.03;;;;;;;;;;6246891;23;20078;-60
2021/10/26 06:52:46;;;;;;;78.68;40.38;;;;;;;;;;6189346;22;20024;-60
2021/10/26 06:55:30;;;;;;;66.55;34.55;;;;;;;;;;6246957;23;20118;-60
2021/10/26 06:58:19;;;;;;;77.10;41.38;;;;;;;;;;6246213;23;20016;-60
2021/10/26 07:01:07;;;;;;;82.63;44.55;;;;;;;;;;6246255;23;20043;-60
2021/10/26 07:03:55;;;;;;;78.70;41.38;;;;;;;;;;6244878;23;20029;-60
2021/10/26 07:06:45;;;;;;;77.05;40.50;;;;;;;;;;6245082;23;20000;-60
2021/10/26 07:09:34;;;;;;;82.05;44.08;;;;;;;;;;6241898;23;20091;-60
2021/10/26 07:12:00;;;;;;;75.50;42.33;;;;;;;;;;6245917;22;20066;-60
2021/10/26 07:14:26;;;;;;;88.22;44.30;;;;;;;;;;6244486;23;20004;-60
2021/10/26 07:16:52;;;;;;;81.93;43.70;;;;;;;;;;6246310;22;20079;-59
2021/10/26 07:19:18;;;;;;;84.18;44.30;;;;;;;;;;6244742;23;20073;-59
2021/10/26 07:22:04;;;;;;;88.68;45.35;;;;;;;;;;6213914;22;20064;-59
2021/10/26 07:24:56;;;;;;;95.80;46.63;;;;;;;;;;6231057;23;20091;-60
2021/10/26 07:27:23;;;;;;;88.95;44.63;;;;;;;;;;6244486;23;20015;-59
2021/10/26 07:29:49;;;;;;;82.38;41.35;;;;;;;;;;6244417;23;20028;-60
2021/10/26 07:32:15;;;;;;;76.57;39.00;;;;;;;;;;6244440;23;20011;-60
2021/10/26 07:34:41;;;;;;;64.43;33.10;;;;;;;;;;6244563;23;19996;-59
2021/10/26 07:37:06;;;;;;;64.05;33.22;;;;;;;;;;6244382;23;20079;-60
2021/10/26 07:39:46;;;;;;;60.88;32.20;;;;;;;;;;6244384;23;20000;-59
2021/10/26 07:42:17;;;;;;;60.25;30.63;;;;;;;;;;6244678;23;20012;-59
2021/10/26 07:44:46;;;;;;;61.53;32.33;;;;;;;;;;6246426;22;20103;-59
2021/10/26 07:47:20;;;;;;;82.80;47.35;;;;;;;;;;6243722;23;20392;-60
2021/10/26 07:49:48;;;;;;;83.30;46.35;;;;;;;;;;6244490;23;20011;-59
2021/10/26 07:52:14;;;;;;;71.65;38.03;;;;;;;;;;6244291;23;20040;-59
2021/10/26 07:54:39;;;;;;;60.45;34.70;;;;;;;;;;6244412;23;20019;-62
2021/10/26 07:57:06;;;;;;;55.20;29.00;;;;;;;;;;6244454;23;20020;-62
2021/10/26 07:59:33;;;;;;;54.13;27.85;;;;;;;;;;6244083;23;20429;-62
2021/10/26 08:01:59;;;;;;;54.63;28.55;;;;;;;;;;6243596;23;20078;-62
2021/10/26 08:04:50;;;;;;;58.83;32.20;;;;;;;;;;6246020;23;20023;-62
2021/10/26 08:07:18;;;;;;;63.20;33.13;;;;;;;;;;6244517;23;20008;-62
2021/10/26 08:09:46;;;;;;;62.45;33.88;;;;;;;;;;6244199;23;20008;-62
2021/10/26 08:12:12;;;;;;;63.15;33.08;;;;;;;;;;6245825;23;20008;-62
2021/10/26 08:14:38;;;;;;;59.45;30.35;;;;;;;;;;6244097;23;20413;-62
2021/10/26 08:17:05;;;;;;;47.25;25.58;;;;;;;;;;6244214;23;20000;-62
2021/10/26 08:19:30;;;;;;;47.88;25.92;;;;;;;;;;6243946;23;20028;-62
2021/10/26 08:21:59;;;;;;;43.63;21.92;;;;;;;;;;6244074;23;20440;-62
2021/10/26 08:24:29;;;;;;;38.65;20.70;;;;;;;;;;6245678;22;19996;-62
2021/10/26 08:26:59;;;;;;;43.40;21.00;;;;;;;;;;6244070;23;20383;-62
2021/10/26 08:37:09;;;;;;;33.72;19.63;;;;;;;;;;6244179;23;20004;-62
2021/10/26 08:39:37;;;;;;;40.67;20.65;;;;;;;;;;6244041;23;20000;-62
2021/10/26 08:42:05;;;;;;;37.03;20.27;;;;;;;;;;6244103;23;19996;-62
2021/10/26 08:44:31;;;;;;;36.92;20.05;;;;;;;;;;6244062;23;20432;-62
2021/10/26 08:46:57;;;;;;;41.60;19.55;;;;;;;;;;6243446;22;20000;-62
2021/10/26 08:49:24;;;;;;;34.20;18.23;;;;;;;;;;6218852;23;20498;-62
2021/10/26 08:52:24;;;;;;;31.30;17.38;;;;;;;;;;6213979;23;20012;-62
2021/10/26 08:54:59;;;;;;;35.72;18.13;;;;;;;;;;6218598;23;20023;-62
2021/10/26 08:57:47;;;;;;;34.90;17.33;;;;;;;;;;6245477;23;20016;-62
2021/10/26 09:00:33;;;;;;;29.77;16.92;;;;;;;;;;6245468;23;20403;-62
2021/10/26 09:03:14;;;;;;;30.02;16.42;;;;;;;;;;6218508;23;20036;-62
2021/10/26 09:05:43;;;;;;;28.38;16.05;;;;;;;;;;6218707;23;20015;-62
2021/10/26 09:08:10;;;;;;;30.17;16.27;;;;;;;;;;6245334;23;19996;-62
2021/10/26 09:10:38;;;;;;;32.30;16.85;;;;;;;;;;6218418;23;20019;-62
2021/10/26 09:16:43;;;;;;;28.73;16.13;;;;;;;;;;6202635;23;20046;-62
2021/10/26 09:19:37;;;;;;;26.60;15.52;;;;;;;;;;6245612;23;20023;-62
2021/10/26 09:22:04;;;;;;;27.52;15.40;;;;;;;;;;6219067;23;20476;-62
2021/10/26 09:24:30;;;;;;;26.90;15.90;;;;;;;;;;6245443;23;20062;-62
2021/10/26 09:26:56;;;;;;;27.02;15.50;;;;;;;;;;6218658;23;20015;-62
2021/10/26 09:29:22;;;;;;;28.38;14.88;;;;;;;;;;6218570;23;20075;-62
2021/10/26 09:31:48;;;;;;;26.38;14.95;;;;;;;;;;6245466;23;20004;-62
2021/10/26 09:34:16;;;;;;;31.55;15.57;;;;;;;;;;6218809;23;20008;-62
2021/10/26 09:36:43;;;;;;;30.65;15.32;;;;;;;;;;6246519;23;20007;-62
2021/10/26 09:39:10;;;;;;;24.15;13.80;;;;;;;;;;6220377;23;20003;-62
2021/10/26 09:41:51;;;;;;;25.33;13.45;;;;;;;;;;6247180;23;20011;-62
2021/10/26 09:44:18;;;;;;;20.33;12.48;;;;;;;;;;6247189;23;20019;-62
2021/10/26 09:47:09;;;;;;;21.90;12.70;;;;;;;;;;6247165;23;20328;-62
2021/10/26 09:49:39;;;;;;;23.55;11.80;;;;;;;;;;6209967;23;20020;-62
2021/10/26 09:52:12;;;;;;;20.95;10.52;;;;;;;;;;6247144;23;20428;-61
2021/10/26 09:54:39;;;;;;;19.52;11.13;;;;;;;;;;6247031;23;20028;-62
2021/10/26 09:57:09;;;;;;;16.02;9.98;;;;;;;;;;6247128;23;20024;-62
2021/10/26 09:59:35;;;;;;;19.63;10.15;;;;;;;;;;6247016;23;20455;-62
2021/10/26 10:02:01;;;;;;;17.65;9.80;;;;;;;;;;6246876;23;20026;-62
2021/10/26 10:04:27;;;;;;;16.67;9.25;;;;;;;;;;6246849;23;20134;-62
2021/10/26 10:06:53;;;;;;;19.20;8.90;;;;;;;;;;6246993;23;19996;-62
2021/10/26 10:09:19;;;;;;;14.23;8.02;;;;;;;;;;6233787;23;20088;-62
2021/10/26 10:11:58;;;;;;;13.73;8.07;;;;;;;;;;6246866;23;19996;-62
2021/10/26 10:14:23;;;;;;;13.38;8.43;;;;;;;;;;6220219;23;20004;-62
2021/10/26 10:16:51;;;;;;;12.80;7.93;;;;;;;;;;6247048;23;20053;-62
2021/10/26 10:19:18;;;;;;;11.70;8.27;;;;;;;;;;6246942;23;20004;-62
2021/10/26 10:21:45;;;;;;;11.68;7.32;;;;;;;;;;6246945;23;19996;-62
2021/10/26 10:24:12;;;;;;;15.07;7.97;;;;;;;;;;6246976;23;20388;-61
2021/10/26 10:26:38;;;;;;;12.35;7.03;;;;;;;;;;6246788;23;20004;-61
2021/10/26 10:29:04;;;;;;;12.05;7.25;;;;;;;;;;6246638;23;20016;-61
2021/10/26 10:31:30;;;;;;;15.88;8.02;;;;;;;;;;6219744;23;20000;-62
2021/10/26 10:33:58;;;;;;;12.80;6.70;;;;;;;;;;6246568;23;20031;-62
2021/10/26 10:36:24;;;;;;;12.27;6.93;;;;;;;;;;6246784;23;20297;-62
2021/10/26 10:38:51;;;;;;;11.65;6.78;;;;;;;;;;6246705;23;20011;-62
2021/10/26 10:41:28;;;;;;;10.23;6.90;;;;;;;;;;6246530;23;20340;-62
2021/10/26 10:43:54;;;;;;;13.52;6.57;;;;;;;;;;6246884;23;20035;-62
2021/10/26 10:46:39;;;;;;;11.60;6.97;;;;;;;;;;6246551;23;20000;-62
2021/10/26 10:49:22;;;;;;;10.20;7.22;;;;;;;;;;6246076;23;20087;-62
2021/10/26 10:52:10;;;;;;;12.50;6.80;;;;;;;;;;6246473;23;20079;-62
2021/10/26 10:54:44;;;;;;;8.95;6.20;;;;;;;;;;6246659;23;20004;-62
2021/10/26 10:57:21;;;;;;;12.02;6.32;;;;;;;;;;6246580;23;20444;-62
2021/10/26 10:59:49;;;;;;;14.90;6.22;;;;;;;;;;6246374;23;20046;-62
2021/10/26 11:02:18;;;;;;;11.13;6.28;;;;;;;;;;6246276;23;20046;-62
2021/10/26 11:04:44;;;;;;;11.90;6.55;;;;;;;;;;6246085;23;20512;-62
2021/10/26 11:07:09;;;;;;;8.85;5.38;;;;;;;;;;6246458;23;20038;-62
2021/10/26 11:09:36;;;;;;;9.52;5.82;;;;;;;;;;6246338;23;20011;-62
2021/10/26 11:12:04;;;;;;;8.98;5.57;;;;;;;;;;6246278;23;19996;-62
2021/10/26 11:14:41;;;;;;;8.35;5.03;;;;;;;;;;6246364;23;20008;-62
2021/10/26 11:17:25;;;;;;;9.60;6.03;;;;;;;;;;6246474;23;20000;-62
2021/10/26 11:19:50;;;;;;;12.55;6.57;;;;;;;;;;6246339;23;20011;-62
2021/10/26 11:22:34;;;;;;;8.93;6.32;;;;;;;;;;6246198;23;20000;-62
2021/10/26 11:25:19;;;;;;;8.77;4.93;;;;;;;;;;6246249;23;20008;-62
2021/10/26 11:27:44;;;;;;;10.38;5.68;;;;;;;;;;6246241;23;20429;-62
2021/10/26 11:30:28;;;;;;;10.27;6.15;;;;;;;;;;6245942;23;19996;-62
2021/10/26 11:33:08;;;;;;;5.95;4.85;;;;;;;;;;6246101;23;20012;-62
2021/10/26 11:36:30;;;;;;;7.03;5.03;;;;;;;;;;6246261;23;20004;-62
2021/10/26 11:38:50;;;;;;;8.80;5.80;;;;;;;;;;6241437;23;20004;-62
2021/10/26 11:41:17;;;;;;;10.65;5.85;;;;;;;;;;6246097;23;19996;-62
2021/10/26 11:43:51;;;;;;;10.10;6.25;;;;;;;;;;6246084;23;20008;-62
2021/10/26 11:46:18;;;;;;;8.00;6.10;;;;;;;;;;6245505;23;20081;-62
2021/10/26 11:48:44;;;;;;;7.00;5.05;;;;;;;;;;6245884;23;20496;-62
2021/10/26 11:51:28;;;;;;;7.68;5.50;;;;;;;;;;6246052;23;20445;-62
2021/10/26 11:54:02;;;;;;;9.50;5.00;;;;;;;;;;6245945;23;20004;-62
2021/10/26 11:56:29;;;;;;;10.80;5.95;;;;;;;;;;6245869;23;20004;-62
2021/10/26 11:58:59;;;;;;;8.95;5.72;;;;;;;;;;6245154;23;20118;-62
2021/10/26 12:01:33;;;;;;;9.20;6.13;;;;;;;;;;6219028;23;20078;-62
2021/10/26 12:03:59;;;;;;;9.10;5.90;;;;;;;;;;6245772;23;20008;-62
2021/10/26 12:06:43;;;;;;;9.65;5.85;;;;;;;;;;6245706;23;19996;-62
2021/10/26 12:09:11;;;;;;;10.65;6.47;;;;;;;;;;6245884;23;20008;-62
2021/10/26 12:11:36;;;;;;;8.50;6.03;;;;;;;;;;6245752;23;19996;-62
2021/10/26 12:14:14;;;;;;;9.85;6.03;;;;;;;;;;6245764;23;20004;-62
2021/10/26 12:16:58;;;;;;;8.15;5.55;;;;;;;;;;6245822;23;20004;-62
2021/10/26 12:19:28;;;;;;;11.50;6.43;;;;;;;;;;6245686;23;20332;-62
2021/10/26 12:21:54;;;;;;;8.55;5.97;;;;;;;;;;6245656;23;19996;-62
2021/10/26 12:24:27;;;;;;;7.22;5.13;;;;;;;;;;6245796;23;20067;-62
2021/10/26 12:27:05;;;;;;;8.15;5.38;;;;;;;;;;6245769;23;20042;-62
2021/10/26 12:29:38;;;;;;;8.00;5.50;;;;;;;;;;6245628;23;20015;-62
2021/10/26 12:32:04;;;;;;;7.38;4.82;;;;;;;;;;6245640;23;20012;-62
2021/10/26 12:34:43;;;;;;;8.50;5.70;;;;;;;;;;6245804;23;20079;-62
2021/10/26 12:37:19;;;;;;;10.52;6.03;;;;;;;;;;6218840;23;20008;-62
2021/10/26 12:39:45;;;;;;;8.40;5.35;;;;;;;;;;6245688;23;20032;-62
2021/10/26 12:42:29;;;;;;;10.10;5.60;;;;;;;;;;6245550;23;20003;-62
2021/10/26 12:44:55;;;;;;;9.52;5.55;;;;;;;;;;6218763;23;20440;-62
2021/10/26 12:47:21;;;;;;;9.70;5.28;;;;;;;;;;6199387;22;20011;-60
2021/10/26 12:49:46;;;;;;;12.73;5.50;;;;;;;;;;6245769;23;20082;-59
2021/10/26 12:52:12;;;;;;;13.88;5.78;;;;;;;;;;6244944;23;20428;-59
2021/10/26 12:54:38;;;;;;;8.57;5.30;;;;;;;;;;6245412;23;20000;-60
2021/10/26 12:57:03;;;;;;;7.50;4.47;;;;;;;;;;6245300;23;20050;-59
2021/10/26 12:59:29;;;;;;;4.07;3.42;;;;;;;;;;6245647;23;20065;-59
2021/10/26 13:01:58;;;;;;;11.20;5.47;;;;;;;;;;6245662;23;20073;-59
2021/10/26 13:04:24;;;;;;;4.37;2.90;;;;;;;;;;6245675;23;20383;-59
2021/10/26 13:07:03;;;;;;;10.45;6.15;;;;;;;;;;6245619;23;20000;-59
2021/10/26 13:09:35;;;;;;;8.25;5.40;;;;;;;;;;6218623;23;20098;-59
2021/10/26 13:12:17;;;;;;;7.68;4.45;;;;;;;;;;6246840;23;20011;-59
2021/10/26 13:14:44;;;;;;;6.85;4.65;;;;;;;;;;6221036;23;20031;-59
2021/10/26 13:17:22;;;;;;;10.43;5.13;;;;;;;;;;6247492;23;20007;-59
2021/10/26 13:19:48;;;;;;;6.18;5.22;;;;;;;;;;6247476;23;20008;-59
2021/10/26 13:22:13;;;;;;;4.60;3.50;;;;;;;;;;6247353;23;20503;-59
2021/10/26 13:24:39;;;;;;;8.07;4.85;;;;;;;;;;6247404;23;20006;-59
2021/10/26 13:27:05;;;;;;;3.75;3.08;;;;;;;;;;6220621;23;20004;-59
2021/10/26 13:29:36;;;;;;;7.90;4.60;;;;;;;;;;6247266;23;20008;-59
2021/10/26 13:32:02;;;;;;;5.65;4.30;;;;;;;;;;6247037;23;20033;-59
2021/10/26 13:34:28;;;;;;;6.53;4.68;;;;;;;;;;6247386;23;20042;-60
2021/10/26 13:36:53;;;;;;;6.95;4.85;;;;;;;;;;6247345;23;20011;-60
2021/10/26 13:39:21;;;;;;;4.32;2.75;;;;;;;;;;6247268;23;20385;-60
2021/10/26 13:41:48;;;;;;;6.28;5.00;;;;;;;;;;6247462;23;20070;-59
2021/10/26 13:44:15;;;;;;;7.72;5.18;;;;;;;;;;6247331;23;19996;-59
2021/10/26 13:46:41;;;;;;;8.85;5.00;;;;;;;;;;6247190;23;20008;-59
2021/10/26 13:49:06;;;;;;;7.70;4.55;;;;;;;;;;6237931;23;20101;-60
2021/10/26 13:51:33;;;;;;;7.22;4.78;;;;;;;;;;6246919;23;20109;-60
2021/10/26 13:53:58;;;;;;;7.20;5.28;;;;;;;;;;6277715;22;20010;-60
2021/10/26 13:56:24;;;;;;;9.32;5.40;;;;;;;;;;6277773;22;20023;-60
2021/10/26 13:58:49;;;;;;;7.90;5.00;;;;;;;;;;6277942;22;20094;-60
2021/10/26 14:01:19;;;;;;;8.07;5.00;;;;;;;;;;6277651;22;20007;-60
2021/10/26 14:03:48;;;;;;;5.97;4.50;;;;;;;;;;6277493;22;20012;-60
2021/10/26 14:06:14;;;;;;;7.93;4.82;;;;;;;;;;6277634;22;20000;-60
2021/10/26 14:08:41;;;;;;;8.18;4.88;;;;;;;;;;6277469;22;20012;-60
2021/10/26 14:11:07;;;;;;;8.57;5.40;;;;;;;;;;6277477;22;20007;-60
2021/10/26 14:13:36;;;;;;;6.35;5.00;;;;;;;;;;6277599;22;20054;-60
2021/10/26 14:16:02;;;;;;;8.98;5.38;;;;;;;;;;6277591;22;19992;-61
2021/10/26 14:18:28;;;;;;;12.30;6.65;;;;;;;;;;6277703;22;20000;-61
2021/10/26 14:20:58;;;;;;;8.63;5.72;;;;;;;;;;6265561;22;20049;-60
2021/10/26 14:23:24;;;;;;;;;;;;;;;;;;6273632;22;20008;-60
2021/10/26 14:25:54;;;;;;;6.90;5.03;;;;;;;;;;6272283;22;20434;-60
2021/10/26 14:28:21;;;;;;;13.00;7.13;;;;;;;;;;6275920;22;20035;-60
2021/10/26 14:30:46;;;;;;;11.10;6.47;;;;;;;;;;6277342;22;19991;-60
2021/10/26 14:33:12;;;;;;;7.57;6.55;;;;;;;;;;6277384;22;20011;-60
2021/10/26 14:35:41;;;;;;;8.75;6.30;;;;;;;;;;6277414;22;20002;-60
2021/10/26 14:56:19;;;;;;;9.93;6.53;;;;;;;;;;6277178;22;20328;-60
2021/10/26 14:58:44;;;;;;;11.15;6.43;;;;;;;;;;6277153;22;19992;-60
2021/10/26 15:01:11;;;;;;;10.73;5.82;;;;;;;;;;6277112;22;20386;-60
2021/10/26 15:03:37;;;;;;;10.90;6.80;;;;;;;;;;6277109;22;20435;-60
2021/10/26 15:06:04;;;;;;;9.63;6.20;;;;;;;;;;6277054;22;20459;-60
2021/10/26 15:08:33;;;;;;;17.20;7.13;;;;;;;;;;6276931;22;20006;-60
2021/10/26 15:11:17;;;;;;;11.30;6.53;;;;;;;;;;6277109;22;20486;-60